PAFAPAUN

Guest
Details From PAFA - Fairbanks Intl
To PAUN - Unalakleet
Flight Number -
Tags Generated
Created
Modified
Stats Distance 341 nm / 631 km
Max Altitude 0 ft / 0 m
Waypoints 3
Social Downloads 2
Likes 0
Share VATSIM

Download

Looking for another format? Having issues loading an existing format? Contact us
Advertisement - Login to hide

Notes

Generated

Route

PAFA UNK PAUN

ID Type Via Altitude Latitude Longitude Leg Dist Tot Dist Heading (true) Name
O PAFA APT - 0 ft / 0 m 64.81606˚ -147.84656˚ - 0 nm - -
UNK VOR - 0 ft / 0 m 63.89194˚ -160.68433˚ 337 nm 337 nm 266° / 255° UNALAKLEET VOR-DME
O PAUN APT - 0 ft / 0 m 63.88345˚ -160.79903˚ 3 nm 340 nm 261° / 260° -

Altitude Profile

Advertisement - Login to hide

Weather


0- 5 10 15 20 25 30 35+ Temperature / ° C

Clouds and Precipitation
Forecast for 2017-12-15 06:00 UTC. Updated 2 hours ago

Ground ~20,000 ft ~40,000 ft Winds

PAFA

Details ICAO PAFA (FAI)
Name FAIRBANKS INTL
Region USA (Alaska)
Timezone America/Anchorage (UTC-9.0)
Stats Elevation 434 ft / 132 m (AMSL)
Location 64.813909° -147.855392°
Runways 3
Magnetic Variation 17.509° E

METAR

PAFA 150253Z 00000KT 10SM SCT065 OVC080 M08/M09 A2950

Decode

TAF

TAF PAFA 142338Z 1500/1606 00000KT P6SM VCSH FEW080 BKN110 OVC200 FM150500 00000KT 1 1/2SM -SN BR OVC015 FM151300 00000KT 4SM -SN OVC015 FM151700 00000KT P6SM VCSH SCT025 OVC050

Decode

Departure Runways

ID Width Length Bearing (true) Bearing (mag) Surface Threshold Offset Overrun Length
01 75 ft / 23 m 2,892 ft / 881 m 38.04° 20.53° Gravel 0 ft / 0 m 0 ft / 0 m
01L 150 ft / 46 m 11,767 ft / 3,587 m 38.00° 20.49° Asphalt 750 ft / 229 m 0 ft / 0 m
01R 100 ft / 30 m 6,482 ft / 1,976 m 38.01° 20.50° Asphalt 0 ft / 0 m 0 ft / 0 m
19 75 ft / 23 m 2,892 ft / 881 m 218.05° 200.54° Gravel 0 ft / 0 m 0 ft / 0 m
19L 100 ft / 30 m 6,482 ft / 1,976 m 218.04° 200.53° Asphalt 0 ft / 0 m 0 ft / 0 m
19R 150 ft / 46 m 11,767 ft / 3,587 m 218.04° 200.53° Asphalt 750 ft / 229 m 0 ft / 0 m

PAUN

Details ICAO PAUN (UNK)
Name Unalakleet
Region USA (Alaska)
Timezone America/Anchorage (UTC-9.0)
Stats Elevation 68 ft / 21 m (AMSL)
Location 63.886590° -160.796931°
Runways 2
Magnetic Variation 12.176° E

METAR

PAUN 150256Z AUTO 00000KT 10SM BKN028 OVC034 M06/M07 A2960 RMK AO2 SLP028 T10561067 55000 FZRANO

Decode

TAF

PAUN 142338Z 1500/1524 20008KT P6SM OVC017 FM150800 07007KT P6SM FEW015 BKN050 FM151500 08010KT P6SM FEW050 FM151900 08020G29KT P6SM SKC

Decode

Destination Runways

ID Width Length Bearing (true) Bearing (mag) Surface Threshold Offset Overrun Length
15 151 ft / 46 m 5,990 ft / 1,826 m 164.15° 151.97° Asphalt 0 ft / 0 m 499 ft / 152 m
26 79 ft / 24 m 1,993 ft / 608 m 278.43° 266.25° Asphalt 0 ft / 0 m 0 ft / 0 m
33 151 ft / 46 m 5,990 ft / 1,826 m 344.16° 331.98° Asphalt 0 ft / 0 m 0 ft / 0 m
8 79 ft / 24 m 1,993 ft / 608 m 98.42° 86.24° Asphalt 0 ft / 0 m 0 ft / 0 m